Airfield :
LOGIN :

Register | Disclaimer

   EN    FR    IT 

 










Legend :    VFR   Marginal VFR   IFR   Intensive IFR   Very Intensive IFR
Visi :
Ceiling :
>= 8 km
>= 3000ft
5 to 8 km
1000 to 3000 ft
1500m to 5 km
500 to 1000 ft
800 to 1500m
200 to 500 ft
< 800m
< 200 ft
Symbols :   Thunderstorms  Fog  Heavy snow  Heavy precipitations  Wind > 20 kt
SIGMETs :     Misc.  Thunderstorms  Icing  Turbulence  Mountain Waves  Volcanic Ashes






- Airport Elevation : 160 ft
- IATA code : FMO


EDDG - Münster Osnabrück Int.

CURRENT METAR :
  • 141450Z AUTO 28009KT 230V340 CAVOK 15/02 Q1020 NOSIG

EXPIRED METARs :
  • 141420Z AUTO 30011KT 260V340 CAVOK 15/02 Q1020 NOSIG
  • 141350Z AUTO 30010KT 260V330 CAVOK 14/03 Q1021 NOSIG
  • 141320Z AUTO 28012KT 240V320 CAVOK 16/03 Q1021 NOSIG
  • 141250Z AUTO 29010KT 260V330 CAVOK 15/02 Q1021 NOSIG
  • 141220Z AUTO 29011KT 260V320 CAVOK 15/02 Q1022 NOSIG
  • 141150Z AUTO 27013KT 250V310 9999 FEW040 14/03 Q1022 NOSIG
  • 141120Z AUTO 28011KT 240V310 9999 BKN038 BKN049 14/05 Q1022 NOSIG
  • 141050Z AUTO 26008KT 220V300 9999 SCT035 BKN048 14/06 Q1022 NOSIG
  • 141020Z AUTO 27007KT 230V300 9999 FEW037 SCT044 13/06 Q1022 BECMG 28012KT

TAF TAF EDDG
Valid from the 14 at 12:00 until the 15 at 12:00 UTC


141100Z 1412/1512 27011KT 9999 SCT030
BECMG 1416/1419 VRB03KT
BECMG 1502/1505 20005KT
BECMG 1506/1509 22014KT
BECMG 1509/1512 22020G30KT



MET'MAP, your aeronautical weather chart ! - Copyright ORBIFLY December 2007 - Disclaimer

ORBIFLY MET'MAP TEAM :

Programming & Development : Alexandra Zaïnal
Original concept : Baudouin d'Aumeries
Technical & hardware support : Manuel Goepfert
Assistance : Marc-Olivier Méhu




SOURCES & CREDITS :

   NOAA